map of RNJ home
RNJ - Airport
Location
City:  Yoron, Yoron Island, Satsunan Islands, Kagoshima, Japan
Name:Yoron Airport
ICAO:RORY
IATA:RNJ

Details
Type:Airport (Aerodrome, Airfield)
Latitude:27°02'38"N (27.043964)
Longitude:128°24'05"E (128.401517)
Datum:WGS 1984
Elevation:52 ft (16 m)
Variation:5.61°W (WMM2015v2 magnetic declination)
-0.08° annual change
Runways:1
Longest:4340 × 100 ft (1323 × 30.5 m), paved

Time
Time Zone:UTC+9
Local Time:

Weather
METAR:RORY 041400Z AUTO 06008KT 9999 BKN017 OVC060 18/16 Q1019

Related Locations
Nearby:
Farthest:JCB: 12444 mi / 20026 km
Joaçaba [Santa Terezinha Airport], SC, BR

Find:

   beyond  
but within

Other Information
Maps:
NOTAMs:
Links:
Sources:

  
  • flag of Japan
  • flag of Kagoshima
  • flag of Yoron
  

Sectional Chart

Flight Planning
at skyvector.com

Satellite Image

Google Maps Satellite view

 

Copyright © 2004-2019 Karl L. Swartz. All rights reserved.
The Great Circle Mapper name and logo are trademarks of the Great Circle Mapper.
All other trademarks mentioned herein belong to their respective owners.
Please see credits for attibutions and further copyright information.

  Follow gcmap on Facebook Follow gcmap on Twitter GCmap on LinkedIn

hCard Microformat

Geo Microformat